createdAt,value
2018-05-01T09:41:56.157Z,27.20
2018-05-01T11:25:10.677Z,19.50
2018-05-01T11:27:38.735Z,18.20
2018-05-01T11:30:06.834Z,16.60
2018-05-01T11:32:34.925Z,15.60
2018-05-01T11:35:03.038Z,15.30
2018-05-01T11:37:31.106Z,14.80
2018-05-01T11:39:59.319Z,14.60
2018-05-01T11:42:27.449Z,14.30
2018-05-01T11:44:55.594Z,13.90
2018-05-01T11:47:31.247Z,13.90
2018-05-01T11:49:59.290Z,14.20
2018-05-01T11:52:27.389Z,14.40
2018-05-01T11:54:55.573Z,14.40
2018-05-01T11:57:23.610Z,14.30
2018-05-01T11:59:51.670Z,14.10
2018-05-01T12:02:19.762Z,14.20
2018-05-01T12:04:47.830Z,14.40
2018-05-01T12:07:15.902Z,14.40
2018-05-01T12:09:44.071Z,14.60
2018-05-01T12:12:12.136Z,14.70
2018-05-01T12:14:40.227Z,14.50
2018-05-01T12:17:08.306Z,14.40
2018-05-01T12:19:43.282Z,14.50
2018-05-01T12:22:11.351Z,14.60
2018-05-01T12:24:39.397Z,14.70
2018-05-01T12:27:07.481Z,14.80
2018-05-01T12:29:36.338Z,14.80
2018-05-01T12:32:04.398Z,14.80
2018-05-01T12:34:32.482Z,14.60
2018-05-01T12:37:00.631Z,14.70
2018-05-01T12:39:28.631Z,14.80
2018-05-01T12:41:56.813Z,14.90
2018-05-01T12:44:24.854Z,15.10
2018-05-01T12:46:52.918Z,15.40
2018-05-01T12:49:21.054Z,15.50
2018-05-01T12:51:49.109Z,15.40
2018-05-01T12:54:17.154Z,15.30
2018-05-01T12:56:45.206Z,15.00
2018-05-01T12:59:15.287Z,14.70
2018-05-01T13:01:43.293Z,14.70
2018-05-01T13:04:11.377Z,14.90
2018-05-01T13:06:40.205Z,15.30
2018-05-01T13:09:08.261Z,15.40
2018-05-01T13:11:36.342Z,15.50
2018-05-01T13:14:04.397Z,15.70
2018-05-01T13:16:37.630Z,15.60
2018-05-01T13:19:05.678Z,15.40
2018-05-01T13:21:33.757Z,15.10
2018-05-01T13:24:01.931Z,15.00
2018-05-01T13:26:30.011Z,15.10
2018-05-01T13:28:58.079Z,15.00
2018-05-01T13:31:26.166Z,15.10
2018-05-01T13:33:54.989Z,15.10
2018-05-01T13:36:23.070Z,15.00
2018-05-01T13:38:51.143Z,14.90
2018-05-01T13:41:19.213Z,14.90
2018-05-01T13:43:53.141Z,14.90
2018-05-01T13:46:21.969Z,15.10
2018-05-01T13:49:01.855Z,15.50
2018-05-01T13:51:29.842Z,15.50
2018-05-01T13:54:02.920Z,15.90
2018-05-01T13:56:31.034Z,15.80
2018-05-01T13:58:59.837Z,15.70
2018-05-01T14:01:27.902Z,15.70
2018-05-01T14:04:12.925Z,15.60
2018-05-01T14:06:40.991Z,15.50
2018-05-01T14:09:09.063Z,15.30
2018-05-01T14:11:37.145Z,15.40
2018-05-01T14:14:05.223Z,15.30
2018-05-01T14:16:43.642Z,15.30
2018-05-01T14:19:11.706Z,15.30
2018-05-01T14:21:40.853Z,15.40
2018-05-01T14:24:09.719Z,15.50
2018-05-01T14:26:37.773Z,15.40
2018-05-01T14:29:08.746Z,15.50
2018-05-01T14:31:40.837Z,15.50
2018-05-01T14:34:09.824Z,15.30
2018-05-01T14:36:45.611Z,15.20
2018-05-01T14:39:13.714Z,15.20
2018-05-01T14:41:43.538Z,15.80
2018-05-01T14:44:11.617Z,15.80
2018-05-01T14:46:39.713Z,15.80
2018-05-01T14:49:09.639Z,15.50
2018-05-01T14:51:37.742Z,15.50
2018-05-01T14:54:05.791Z,15.60
2018-05-01T14:56:42.739Z,15.50
2018-05-01T14:59:10.804Z,15.30
2018-05-01T15:01:38.956Z,15.10
2018-05-01T15:04:20.829Z,15.10
2018-05-01T15:06:48.958Z,15.20
2018-05-01T15:09:17.029Z,15.40
2018-05-01T15:11:45.209Z,15.20
2018-05-01T15:14:13.288Z,15.30
2018-05-01T15:16:42.094Z,15.20
2018-05-01T15:19:10.146Z,15.20
2018-05-01T15:21:38.972Z,16.00
2018-05-01T15:24:07.065Z,16.00
2018-05-01T15:26:35.139Z,16.10
2018-05-01T15:29:08.033Z,15.80
2018-05-01T15:31:36.106Z,15.80
2018-05-01T15:34:04.154Z,15.90
2018-05-01T15:36:38.914Z,15.90
2018-05-01T15:39:06.993Z,16.20
2018-05-01T15:41:35.066Z,16.80
2018-05-01T15:44:03.133Z,17.60
2018-05-01T15:46:31.202Z,18.80
2018-05-01T15:48:59.273Z,19.30
2018-05-01T15:51:27.369Z,18.10
2018-05-01T15:53:56.199Z,16.70
2018-05-01T15:56:24.257Z,16.70
2018-05-01T15:58:52.329Z,16.20
2018-05-01T16:01:20.416Z,15.90
2018-05-01T16:03:51.406Z,16.50
2018-05-01T16:06:19.557Z,18.50
2018-05-01T16:08:48.397Z,21.60
2018-05-01T16:11:16.490Z,21.50
2018-05-01T16:13:44.557Z,21.70
2018-05-01T16:16:12.582Z,22.00
2018-05-01T16:18:40.666Z,21.30
2018-05-01T16:21:09.536Z,19.10
2018-05-01T16:23:37.583Z,19.10
2018-05-01T16:26:09.581Z,18.20
2018-05-01T16:28:37.629Z,17.80
2018-05-01T16:31:05.706Z,17.50
2018-05-01T16:33:33.789Z,17.10
2018-05-01T16:36:01.944Z,16.60
2018-05-01T16:38:29.939Z,16.60
2018-05-01T16:40:58.011Z,17.90
2018-05-01T16:43:26.025Z,19.80
2018-05-01T16:45:54.079Z,21.20
2018-05-01T16:48:22.942Z,23.80
2018-05-01T16:50:51.006Z,23.80
2018-05-01T16:53:19.077Z,24.70
2018-05-01T16:55:47.155Z,25.40
2018-05-01T16:58:15.193Z,24.70
2018-05-01T17:00:43.274Z,23.60
2018-05-01T17:03:11.371Z,22.80
2018-05-01T17:05:39.438Z,22.30
2018-05-01T17:08:07.505Z,21.90
2018-05-01T17:10:35.589Z,22.10
2018-05-01T17:13:07.554Z,22.30
2018-05-01T17:15:35.634Z,22.20
2018-05-01T17:18:03.694Z,22.00
2018-05-01T17:20:31.757Z,21.70
2018-05-01T17:22:59.837Z,21.70
2018-05-01T17:25:27.912Z,21.80
2018-05-01T17:27:55.958Z,22.30
2018-05-01T17:30:24.038Z,22.30
2018-05-01T17:32:52.082Z,22.20
2018-05-01T17:35:20.153Z,22.20
2018-05-01T17:37:48.257Z,22.40
2018-05-01T17:40:16.322Z,22.50
2018-05-01T17:42:44.406Z,22.60
2018-05-01T17:45:12.478Z,22.50
2018-05-01T17:47:40.551Z,22.00
2018-05-01T17:50:08.599Z,22.10
2018-05-01T17:52:36.673Z,22.00
2018-05-01T17:55:04.753Z,21.50
2018-05-01T17:57:32.912Z,21.00
2018-05-01T18:00:00.893Z,20.70
2018-05-01T18:02:28.948Z,20.20
2018-05-01T18:04:57.013Z,19.80
2018-05-01T18:07:25.083Z,19.30
2018-05-01T18:09:53.146Z,19.20
2018-05-01T18:12:21.950Z,18.90
2018-05-01T18:14:50.015Z,18.90
2018-05-01T18:17:18.054Z,18.90
2018-05-01T18:19:46.113Z,18.60
2018-05-01T18:22:14.182Z,18.40
2018-05-01T18:24:42.257Z,18.40
2018-05-01T18:27:10.326Z,18.40
2018-05-01T18:29:38.508Z,18.30
2018-05-01T18:32:06.587Z,17.90
2018-05-01T18:34:34.651Z,17.30
2018-05-01T18:37:02.830Z,16.70
2018-05-01T18:39:30.902Z,16.10
2018-05-01T18:41:58.965Z,15.60
2018-05-01T18:44:27.037Z,15.00
2018-05-01T18:46:55.093Z,14.70
2018-05-01T18:49:23.165Z,14.30
2018-05-01T18:51:51.362Z,14.00
2018-05-01T18:54:19.443Z,13.80
2018-05-01T18:56:47.513Z,13.50
2018-05-01T18:59:15.592Z,13.30
2018-05-01T19:01:43.657Z,13.00
2018-05-01T19:04:11.707Z,12.90
2018-05-01T19:06:39.766Z,12.70
2018-05-01T19:09:07.826Z,12.60
2018-05-01T19:11:35.893Z,12.40
2018-05-01T19:14:03.982Z,12.30
2018-05-01T19:16:32.033Z,12.10
2018-05-01T19:19:00.093Z,12.10
2018-05-01T19:21:28.192Z,11.90
2018-05-01T19:23:56.245Z,11.80
2018-05-01T19:26:24.301Z,11.70
2018-05-01T19:28:53.297Z,11.50
2018-05-01T19:31:22.101Z,11.30
2018-05-01T19:33:50.174Z,11.30
2018-05-01T19:36:18.275Z,11.30
2018-05-01T19:38:46.342Z,11.20
2018-05-01T19:41:14.418Z,11.10
2018-05-01T19:43:42.502Z,11.00
2018-05-01T19:46:10.590Z,11.00
2018-05-01T19:48:38.709Z,10.90
2018-05-01T19:51:06.773Z,10.80
2018-05-01T19:53:34.785Z,10.70
2018-05-01T19:56:02.861Z,10.70
2018-05-01T19:58:30.909Z,10.60
2018-05-01T20:01:00.178Z,10.60
2018-05-01T20:03:28.327Z,10.50
2018-05-01T20:05:56.338Z,10.40
2018-05-01T20:08:24.398Z,10.30
2018-05-01T20:10:52.475Z,10.20
2018-05-01T20:13:20.558Z,10.10
2018-05-01T20:15:48.602Z,10.00
2018-05-01T20:18:16.671Z,9.90
2018-05-01T20:20:44.742Z,9.90
2018-05-01T20:23:12.802Z,9.80
2018-05-01T20:25:40.866Z,9.70
2018-05-01T20:28:08.937Z,9.60
2018-05-01T20:30:38.246Z,9.60
2018-05-01T20:33:06.309Z,9.50
2018-05-01T20:35:34.386Z,9.50
2018-05-01T20:38:02.438Z,9.30
2018-05-01T20:40:30.477Z,9.30
2018-05-01T20:42:58.530Z,9.20
2018-05-01T20:45:27.357Z,9.00
2018-05-01T20:47:55.410Z,9.00
2018-05-01T20:50:23.491Z,9.00
2018-05-01T20:52:51.534Z,9.00
2018-05-01T20:55:20.377Z,8.90
2018-05-01T20:57:49.201Z,8.80
2018-05-01T21:00:17.249Z,8.70
2018-05-01T21:02:45.282Z,8.80
2018-05-01T21:05:13.347Z,8.70
2018-05-01T21:07:41.390Z,8.70
2018-05-01T21:10:09.482Z,8.60
2018-05-01T21:12:38.326Z,8.40
2018-05-01T21:15:06.397Z,8.40
2018-05-01T21:17:34.466Z,8.40
2018-05-01T21:20:02.537Z,8.30
2018-05-01T21:22:30.578Z,8.30
2018-05-01T21:24:58.631Z,8.30
2018-05-01T21:27:27.448Z,8.20
2018-05-01T21:29:55.514Z,8.20
2018-05-01T21:32:23.621Z,8.10
2018-05-01T21:34:51.677Z,8.10
2018-05-01T21:37:19.769Z,8.00
2018-05-01T21:39:47.822Z,8.00
2018-05-01T21:42:15.989Z,8.00
2018-05-01T21:44:44.051Z,7.90
2018-05-01T21:47:13.094Z,7.90
2018-05-01T21:49:41.286Z,7.80
2018-05-01T21:52:09.342Z,7.70
2018-05-01T21:54:37.402Z,7.70
2018-05-01T21:57:05.503Z,7.70
2018-05-01T21:59:33.570Z,7.70
2018-05-01T22:02:01.625Z,7.70
2018-05-01T22:04:29.690Z,7.60
2018-05-01T22:06:57.758Z,7.60
2018-05-01T22:09:25.815Z,7.50
2018-05-01T22:11:53.881Z,7.50
2018-05-01T22:14:21.982Z,7.40
2018-05-01T22:16:50.036Z,7.40
2018-05-01T22:19:18.118Z,7.30
2018-05-01T22:21:46.303Z,7.20
2018-05-01T22:24:14.382Z,7.10
2018-05-01T22:26:42.430Z,7.10
2018-05-01T22:29:10.499Z,7.10
2018-05-01T22:31:38.556Z,7.10
2018-05-01T22:34:06.590Z,7.10
2018-05-01T22:36:34.649Z,7.00
2018-05-01T22:39:02.725Z,7.00
2018-05-01T22:41:30.803Z,7.00
2018-05-01T22:43:58.879Z,7.00
2018-05-01T22:46:26.969Z,6.90
2018-05-01T22:48:55.026Z,6.90
2018-05-01T22:51:23.089Z,6.90
2018-05-01T22:53:51.150Z,6.80
2018-05-01T22:56:19.183Z,6.80
2018-05-01T22:58:47.233Z,6.70
2018-05-01T23:01:15.303Z,6.70
2018-05-01T23:03:43.338Z,6.70
2018-05-01T23:06:11.426Z,6.70
2018-05-01T23:08:39.457Z,6.60
2018-05-01T23:11:07.499Z,6.60
2018-05-01T23:13:35.610Z,6.60
2018-05-01T23:16:03.678Z,6.60
2018-05-01T23:18:31.718Z,6.50
2018-05-01T23:20:59.773Z,6.60
2018-05-01T23:23:27.849Z,6.50
2018-05-01T23:25:55.914Z,6.50
2018-05-01T23:28:23.990Z,6.50
2018-05-01T23:30:52.045Z,6.40
2018-05-01T23:33:20.875Z,6.40
2018-05-01T23:35:48.946Z,6.40
2018-05-01T23:38:17.038Z,6.30
2018-05-01T23:40:45.105Z,6.30
2018-05-01T23:43:13.170Z,6.30
2018-05-01T23:45:41.228Z,6.30
2018-05-01T23:48:09.282Z,6.20
2018-05-01T23:50:37.342Z,6.20
2018-05-01T23:53:06.177Z,6.20
2018-05-01T23:55:34.229Z,6.20
2018-05-01T23:58:02.302Z,6.10
